createdAt,value
2019-02-17T00:01:44.962Z,11.00
2019-02-17T00:04:15.566Z,11.00
2019-02-17T00:06:46.073Z,10.90
2019-02-17T00:09:16.728Z,11.00
2019-02-17T00:11:47.435Z,10.90
2019-02-17T00:14:18.009Z,10.80
2019-02-17T00:16:49.720Z,10.90
2019-02-17T00:19:20.216Z,10.70
2019-02-17T00:21:50.712Z,10.70
2019-02-17T00:24:21.372Z,10.80
2019-02-17T00:26:51.841Z,10.70
2019-02-17T00:29:22.447Z,10.60
2019-02-17T00:31:53.040Z,10.60
2019-02-17T00:34:24.062Z,10.60
2019-02-17T00:36:54.669Z,10.60
2019-02-17T00:39:25.248Z,10.50
2019-02-17T00:41:55.837Z,10.30
2019-02-17T00:44:26.545Z,10.30
2019-02-17T00:46:57.041Z,10.20
2019-02-17T00:49:27.744Z,9.20
2019-02-17T00:51:58.943Z,10.10
2019-02-17T00:54:31.287Z,9.90
2019-02-17T00:57:02.464Z,9.70
2019-02-17T00:59:33.628Z,9.60
2019-02-17T01:02:04.375Z,9.50
2019-02-17T01:04:35.014Z,9.30
2019-02-17T01:07:05.650Z,9.20
2019-02-17T01:09:36.313Z,9.20
2019-02-17T01:12:07.848Z,9.10
2019-02-17T01:14:39.484Z,9.00
2019-02-17T01:17:10.141Z,9.00
2019-02-17T01:19:40.732Z,8.90
2019-02-17T01:22:11.211Z,8.90
2019-02-17T01:24:41.781Z,8.90
2019-02-17T01:27:12.436Z,8.80
2019-02-17T01:29:43.127Z,8.80
2019-02-17T01:32:13.883Z,8.80
2019-02-17T01:34:44.729Z,8.80
2019-02-17T01:37:15.332Z,8.70
2019-02-17T01:39:53.090Z,8.70
2019-02-17T01:45:13.110Z,8.60
2019-02-17T01:47:44.128Z,8.60
2019-02-17T01:50:14.796Z,8.60
2019-02-17T01:52:45.516Z,8.50
2019-02-17T01:55:16.064Z,8.50
2019-02-17T01:57:46.890Z,8.50
2019-02-17T02:00:17.514Z,8.50
2019-02-17T02:02:47.974Z,8.50
2019-02-17T02:05:18.564Z,8.50
2019-02-17T02:07:49.141Z,8.50
2019-02-17T02:10:19.862Z,8.50
2019-02-17T02:12:50.435Z,8.50
2019-02-17T02:15:22.164Z,8.50
2019-02-17T02:17:52.731Z,8.50
2019-02-17T02:20:23.387Z,8.50
2019-02-17T02:22:53.893Z,8.50
2019-02-17T02:25:24.387Z,8.50
2019-02-17T02:27:55.052Z,8.50
2019-02-17T02:30:25.591Z,8.50
2019-02-17T02:32:56.231Z,8.50
2019-02-17T02:35:26.676Z,8.50
2019-02-17T02:37:57.689Z,8.50
2019-02-17T02:40:28.205Z,8.50
2019-02-17T02:42:58.898Z,8.50
2019-02-17T02:45:29.540Z,8.50
2019-02-17T02:48:00.056Z,8.40
2019-02-17T02:50:30.632Z,8.40
2019-02-17T02:53:01.132Z,8.40
2019-02-17T02:55:31.828Z,8.40
2019-02-17T02:58:02.457Z,8.40
2019-02-17T03:00:33.042Z,8.40
2019-02-17T03:03:03.508Z,8.30
2019-02-17T03:05:35.965Z,8.30
2019-02-17T03:08:06.534Z,8.20
2019-02-17T03:10:37.301Z,8.20
2019-02-17T03:13:07.988Z,8.20
2019-02-17T03:15:38.864Z,8.20
2019-02-17T03:18:09.465Z,8.10
2019-02-17T03:20:40.113Z,8.10
2019-02-17T03:23:10.664Z,8.00
2019-02-17T03:25:41.213Z,8.00
2019-02-17T03:28:11.666Z,7.90
2019-02-17T03:30:42.385Z,7.90
2019-02-17T03:33:13.161Z,7.80
2019-02-17T03:35:44.569Z,7.80
2019-02-17T03:38:15.305Z,7.70
2019-02-17T03:40:45.885Z,7.70
2019-02-17T03:43:16.608Z,7.60
2019-02-17T03:45:47.236Z,7.60
2019-02-17T03:51:06.685Z,7.60
2019-02-17T03:53:37.291Z,7.50
2019-02-17T03:56:07.982Z,7.50
2019-02-17T03:58:38.608Z,7.50
2019-02-17T04:01:09.185Z,7.50
2019-02-17T04:03:39.822Z,7.40
2019-02-17T04:06:10.360Z,7.40
2019-02-17T04:08:40.848Z,7.40
2019-02-17T04:11:11.508Z,7.40
2019-02-17T04:13:42.014Z,7.40
2019-02-17T04:16:12.467Z,7.40
2019-02-17T04:18:43.245Z,7.40
2019-02-17T04:21:13.712Z,7.50
2019-02-17T04:23:44.402Z,7.40
2019-02-17T04:26:14.856Z,7.40
2019-02-17T04:28:45.359Z,7.40
2019-02-17T04:31:15.820Z,7.40
2019-02-17T04:33:46.308Z,7.30
2019-02-17T04:36:16.811Z,7.30
2019-02-17T04:38:47.263Z,7.30
2019-02-17T04:41:17.895Z,7.30
2019-02-17T04:43:48.393Z,7.30
2019-02-17T04:46:18.868Z,7.40
2019-02-17T04:48:49.381Z,7.40
2019-02-17T04:51:19.879Z,7.40
2019-02-17T04:53:50.380Z,7.40
2019-02-17T04:56:20.846Z,7.40
2019-02-17T04:58:51.328Z,7.40
2019-02-17T05:01:21.902Z,7.30
2019-02-17T05:03:52.439Z,7.20
2019-02-17T05:06:22.904Z,7.20
2019-02-17T05:08:53.497Z,7.20
2019-02-17T05:11:23.996Z,7.20
2019-02-17T05:13:54.485Z,7.20
2019-02-17T05:16:27.300Z,7.30
2019-02-17T05:18:57.865Z,7.30
2019-02-17T05:21:28.392Z,7.30
2019-02-17T05:23:58.897Z,7.30
2019-02-17T05:29:12.012Z,7.30
2019-02-17T05:31:42.469Z,7.40
2019-02-17T05:34:12.951Z,7.40
2019-02-17T05:36:43.436Z,7.40
2019-02-17T05:39:13.948Z,7.40
2019-02-17T05:41:44.457Z,7.50
2019-02-17T05:44:15.021Z,7.50
2019-02-17T05:46:45.496Z,7.50
2019-02-17T05:49:16.214Z,7.60
2019-02-17T05:51:46.706Z,7.70
2019-02-17T05:54:17.204Z,7.80
2019-02-17T05:56:47.845Z,8.00
2019-02-17T05:59:18.326Z,8.20
2019-02-17T06:01:48.799Z,8.20
2019-02-17T06:07:08.540Z,8.40
2019-02-17T06:09:39.008Z,8.50
2019-02-17T06:12:09.520Z,8.40
2019-02-17T06:14:40.000Z,8.50
2019-02-17T06:17:10.565Z,8.50
2019-02-17T06:19:41.029Z,8.50
2019-02-17T06:22:11.554Z,8.50
2019-02-17T06:24:44.756Z,8.50
2019-02-17T06:27:15.276Z,8.40
2019-02-17T06:29:45.726Z,8.40
2019-02-17T06:32:16.235Z,8.30
2019-02-17T06:34:46.697Z,8.40
2019-02-17T06:37:17.356Z,8.50
2019-02-17T06:39:48.119Z,8.50
2019-02-17T06:42:18.679Z,8.50
2019-02-17T06:44:49.216Z,8.40
2019-02-17T06:47:26.586Z,8.40
2019-02-17T06:49:57.220Z,8.50
2019-02-17T06:52:27.675Z,8.40
2019-02-17T06:55:26.104Z,8.50
2019-02-17T06:57:56.728Z,8.60
2019-02-17T07:00:34.576Z,8.70
2019-02-17T07:03:05.059Z,8.70
2019-02-17T07:06:03.610Z,8.80
2019-02-17T07:08:45.711Z,8.80
2019-02-17T07:11:16.200Z,8.70
2019-02-17T07:13:46.699Z,8.70
2019-02-17T07:16:18.749Z,8.70
2019-02-17T07:18:49.244Z,8.70
2019-02-17T07:21:19.725Z,8.70
2019-02-17T07:23:50.218Z,8.70
2019-02-17T07:26:20.880Z,8.70
2019-02-17T07:28:51.398Z,8.70
2019-02-17T07:31:22.616Z,8.70
2019-02-17T07:33:53.286Z,8.70
2019-02-17T07:36:24.917Z,8.70
2019-02-17T07:38:55.408Z,8.70
2019-02-17T07:41:25.917Z,8.70
2019-02-17T07:43:56.387Z,8.90
2019-02-17T07:46:26.937Z,8.80
2019-02-17T07:49:08.905Z,8.90
2019-02-17T07:51:39.438Z,9.00
2019-02-17T07:54:09.964Z,9.10
2019-02-17T07:56:40.548Z,9.20
2019-02-17T07:59:11.008Z,9.20
2019-02-17T08:01:45.213Z,9.30
2019-02-17T08:04:13.583Z,9.40
2019-02-17T08:06:44.079Z,9.40
2019-02-17T08:09:14.543Z,9.50
2019-02-17T08:11:45.046Z,9.60
2019-02-17T08:14:15.566Z,9.60
2019-02-17T08:16:46.248Z,9.60
2019-02-17T08:19:16.784Z,9.60
2019-02-17T08:21:47.286Z,9.60
2019-02-17T08:24:17.808Z,9.60
2019-02-17T08:26:48.287Z,9.60
2019-02-17T08:29:18.796Z,9.70
2019-02-17T08:31:55.941Z,9.70
2019-02-17T08:34:21.490Z,9.70
2019-02-17T08:36:52.006Z,9.70
2019-02-17T08:39:22.516Z,9.70
2019-02-17T08:41:53.145Z,9.70
2019-02-17T08:44:23.636Z,9.70
2019-02-17T08:46:54.189Z,9.70
2019-02-17T08:49:24.831Z,9.70
2019-02-17T08:51:55.384Z,9.80
2019-02-17T08:54:25.880Z,9.80
2019-02-17T08:56:56.429Z,9.80
2019-02-17T08:59:27.037Z,9.90
2019-02-17T09:02:05.547Z,9.90
2019-02-17T09:04:29.564Z,10.00
2019-02-17T09:07:00.056Z,10.10
2019-02-17T09:09:30.528Z,10.20
2019-02-17T09:12:01.063Z,10.20
2019-02-17T09:14:31.553Z,10.20
2019-02-17T09:17:02.046Z,10.30
2019-02-17T09:19:32.572Z,10.30
2019-02-17T09:22:03.076Z,10.30
2019-02-17T09:24:33.584Z,10.40
2019-02-17T09:27:04.065Z,10.40
2019-02-17T09:29:34.656Z,10.40
2019-02-17T09:32:05.179Z,10.40
2019-02-17T09:34:35.866Z,10.50
2019-02-17T09:37:06.361Z,10.50
2019-02-17T09:39:37.124Z,10.50
2019-02-17T09:42:07.636Z,10.50
2019-02-17T09:44:38.174Z,10.60
2019-02-17T09:47:08.760Z,10.60
2019-02-17T09:49:39.272Z,10.70
2019-02-17T09:52:09.796Z,10.70
2019-02-17T09:54:40.292Z,10.80
2019-02-17T09:57:10.816Z,10.90
2019-02-17T09:59:41.356Z,11.00
2019-02-17T10:02:12.004Z,11.10
2019-02-17T10:04:42.586Z,11.10
2019-02-17T10:07:13.079Z,11.20
2019-02-17T10:09:43.616Z,11.20
2019-02-17T10:12:14.107Z,11.30
2019-02-17T10:14:44.665Z,11.30
2019-02-17T10:17:15.193Z,11.40
2019-02-17T10:19:45.838Z,11.40
2019-02-17T10:22:16.320Z,11.40
2019-02-17T10:24:46.853Z,11.50
2019-02-17T10:27:17.348Z,11.70
2019-02-17T10:29:48.036Z,11.70
2019-02-17T10:34:50.671Z,11.80
2019-02-17T10:37:21.212Z,11.80
2019-02-17T10:39:51.733Z,11.80
2019-02-17T10:42:22.640Z,11.80
2019-02-17T10:44:53.450Z,11.70
2019-02-17T10:47:24.380Z,11.70
2019-02-17T10:49:55.117Z,11.70
2019-02-17T10:52:25.696Z,11.80
2019-02-17T10:54:56.403Z,11.80
2019-02-17T10:57:27.160Z,11.80
2019-02-17T10:59:57.825Z,11.80
2019-02-17T11:02:28.671Z,11.80
2019-02-17T11:04:59.318Z,11.70
2019-02-17T11:07:29.812Z,11.70
2019-02-17T11:10:00.569Z,11.70
2019-02-17T11:12:31.156Z,11.70
2019-02-17T11:15:01.811Z,11.60
2019-02-17T11:17:32.371Z,11.60
2019-02-17T11:20:03.332Z,11.60
2019-02-17T11:22:34.009Z,11.60
2019-02-17T11:25:04.792Z,11.60
2019-02-17T11:27:35.465Z,11.60
2019-02-17T11:30:07.357Z,11.60
2019-02-17T11:32:37.852Z,11.60
2019-02-17T11:35:08.620Z,11.50
2019-02-17T11:37:39.098Z,11.50
2019-02-17T11:40:11.385Z,11.50
2019-02-17T11:42:42.247Z,11.60
2019-02-17T11:45:15.440Z,11.60
2019-02-17T11:47:45.951Z,11.60
2019-02-17T11:50:16.577Z,11.60
2019-02-17T11:52:47.075Z,11.60
2019-02-17T11:55:17.669Z,11.50
2019-02-17T11:57:48.293Z,11.60
2019-02-17T12:00:19.969Z,11.80
2019-02-17T12:02:50.596Z,12.00
2019-02-17T12:05:21.267Z,12.10
2019-02-17T12:07:52.329Z,12.20
2019-02-17T12:10:22.844Z,12.10
2019-02-17T12:12:53.324Z,12.10
2019-02-17T12:15:23.924Z,12.20
2019-02-17T12:17:54.429Z,12.30
2019-02-17T12:20:42.342Z,12.30
2019-02-17T12:23:16.852Z,12.20
2019-02-17T12:25:58.092Z,12.20
2019-02-17T12:28:33.412Z,12.30
2019-02-17T12:31:03.909Z,12.40
2019-02-17T12:33:34.451Z,12.60
2019-02-17T12:36:05.146Z,12.70
2019-02-17T12:38:35.734Z,12.70
2019-02-17T12:41:06.236Z,12.70
2019-02-17T12:43:36.804Z,12.70
2019-02-17T12:46:07.274Z,12.70
2019-02-17T12:48:39.715Z,12.80
2019-02-17T12:51:10.491Z,12.80
2019-02-17T12:53:41.369Z,12.90
2019-02-17T12:56:14.067Z,12.90
2019-02-17T12:58:44.381Z,12.90
2019-02-17T13:01:15.036Z,12.80
2019-02-17T13:03:45.552Z,12.90
2019-02-17T13:06:16.109Z,13.00
2019-02-17T13:08:46.583Z,13.10
2019-02-17T13:11:17.109Z,13.10
2019-02-17T13:13:47.610Z,13.20
2019-02-17T13:16:18.224Z,13.10
2019-02-17T13:18:48.743Z,12.90
2019-02-17T13:21:19.364Z,12.80
2019-02-17T13:23:49.900Z,12.80
2019-02-17T13:26:20.471Z,12.80
2019-02-17T13:28:51.008Z,12.80
2019-02-17T13:31:21.613Z,12.70
2019-02-17T13:33:52.148Z,12.70
2019-02-17T13:36:22.748Z,12.70
2019-02-17T13:38:53.311Z,12.70
2019-02-17T13:41:24.019Z,12.70
2019-02-17T13:43:54.500Z,12.80
2019-02-17T13:46:25.049Z,12.90
2019-02-17T13:48:55.885Z,13.00
2019-02-17T13:51:26.507Z,13.20
2019-02-17T13:53:57.086Z,13.30
2019-02-17T13:56:27.647Z,13.20
2019-02-17T13:58:58.504Z,13.10
2019-02-17T14:04:05.248Z,13.00
2019-02-17T14:06:36.928Z,12.90
2019-02-17T14:09:08.139Z,13.00
2019-02-17T14:11:38.646Z,13.20
2019-02-17T14:14:09.217Z,13.20
2019-02-17T14:16:40.033Z,13.40
2019-02-17T14:19:10.657Z,13.90
2019-02-17T14:21:41.677Z,14.40
2019-02-17T14:24:12.336Z,14.20
2019-02-17T14:26:42.904Z,13.80
2019-02-17T14:29:13.502Z,13.50
2019-02-17T14:31:44.167Z,13.20
2019-02-17T14:34:14.640Z,13.30
2019-02-17T14:36:45.547Z,13.40
2019-02-17T14:39:16.168Z,13.50
2019-02-17T14:41:47.010Z,13.50
2019-02-17T14:44:17.457Z,13.50
2019-02-17T14:46:47.998Z,13.50
2019-02-17T14:49:18.616Z,13.50
2019-02-17T14:51:49.201Z,13.60
2019-02-17T14:54:19.767Z,13.80
2019-02-17T14:56:50.332Z,13.70
2019-02-17T14:59:20.908Z,13.70
2019-02-17T15:01:51.803Z,13.70
2019-02-17T15:04:22.999Z,13.70
2019-02-17T15:06:53.809Z,13.50
2019-02-17T15:09:24.501Z,13.40
2019-02-17T15:11:55.506Z,13.50
2019-02-17T15:14:26.351Z,13.70
2019-02-17T15:16:56.899Z,13.80
2019-02-17T15:19:27.431Z,13.90
2019-02-17T15:21:57.927Z,14.00
2019-02-17T15:24:28.422Z,13.90
2019-02-17T15:26:58.944Z,13.90
2019-02-17T15:29:31.710Z,13.80
2019-02-17T15:32:02.124Z,13.90
2019-02-17T15:34:32.947Z,13.90
2019-02-17T15:37:03.472Z,13.90
2019-02-17T15:39:35.193Z,13.80
2019-02-17T15:42:05.777Z,13.90
2019-02-17T15:44:36.425Z,13.90
2019-02-17T15:47:06.940Z,14.00
2019-02-17T15:49:37.421Z,14.10
2019-02-17T15:52:08.095Z,14.00
2019-02-17T15:54:38.942Z,14.00
2019-02-17T15:57:09.494Z,13.90
2019-02-17T15:59:40.021Z,13.70
2019-02-17T16:02:10.621Z,13.80
2019-02-17T16:04:41.262Z,13.80
2019-02-17T16:07:11.987Z,13.60
2019-02-17T16:09:42.547Z,13.70
2019-02-17T16:12:13.094Z,13.60
2019-02-17T16:14:43.652Z,13.60
2019-02-17T16:17:14.597Z,13.50
2019-02-17T16:19:45.196Z,13.60
2019-02-17T16:22:15.777Z,13.50
2019-02-17T16:24:46.365Z,13.40
2019-02-17T16:27:16.852Z,13.40
2019-02-17T16:29:47.381Z,13.40
2019-02-17T16:32:17.893Z,13.30
2019-02-17T16:34:48.438Z,13.20
2019-02-17T16:37:18.936Z,13.10
2019-02-17T16:39:49.506Z,13.00
2019-02-17T16:42:20.107Z,13.00
2019-02-17T16:44:50.696Z,12.90
2019-02-17T16:47:22.336Z,12.90
2019-02-17T16:49:52.818Z,12.80
2019-02-17T16:52:23.326Z,12.70
2019-02-17T16:54:54.245Z,12.50
2019-02-17T16:57:24.848Z,12.30
2019-02-17T17:02:37.881Z,12.10
2019-02-17T17:05:09.424Z,12.00
2019-02-17T17:07:40.614Z,11.90
2019-02-17T17:10:11.169Z,11.80
2019-02-17T17:12:41.674Z,11.80
2019-02-17T17:15:12.761Z,11.60
2019-02-17T17:17:46.421Z,11.60
2019-02-17T17:20:17.048Z,11.50
2019-02-17T17:22:50.086Z,11.40
2019-02-17T17:25:20.567Z,11.40
2019-02-17T17:27:51.055Z,11.30
2019-02-17T17:30:21.560Z,11.20
2019-02-17T17:32:52.154Z,11.10
2019-02-17T17:35:22.691Z,11.10
2019-02-17T17:37:53.444Z,11.00
2019-02-17T17:40:23.964Z,11.00
2019-02-17T17:42:54.488Z,11.00
2019-02-17T17:45:24.975Z,10.90
2019-02-17T17:47:55.484Z,10.80
2019-02-17T17:50:25.980Z,10.80
2019-02-17T17:52:56.465Z,10.70
2019-02-17T17:55:28.532Z,10.70
2019-02-17T17:57:59.060Z,10.70
2019-02-17T18:00:30.600Z,10.60
2019-02-17T18:03:01.076Z,10.60
2019-02-17T18:05:31.594Z,10.60
2019-02-17T18:08:02.098Z,10.50
2019-02-17T18:10:32.939Z,10.50
2019-02-17T18:13:03.655Z,10.50
2019-02-17T18:15:34.147Z,10.40
2019-02-17T18:18:04.628Z,10.40
2019-02-17T18:20:35.129Z,10.30
2019-02-17T18:23:05.633Z,10.30
2019-02-17T18:25:36.113Z,10.30
2019-02-17T18:28:06.699Z,10.30
2019-02-17T18:30:37.276Z,10.20
2019-02-17T18:33:07.764Z,10.20
2019-02-17T18:35:38.295Z,10.20
2019-02-17T18:38:08.959Z,10.20
2019-02-17T18:40:45.023Z,10.10
2019-02-17T18:43:11.725Z,10.10
2019-02-17T18:45:42.268Z,10.10
2019-02-17T18:48:12.895Z,10.10
2019-02-17T18:50:43.381Z,10.00
2019-02-17T18:53:15.401Z,10.00
2019-02-17T18:55:46.147Z,10.00
2019-02-17T18:58:16.744Z,9.90
2019-02-17T19:00:47.272Z,9.90
2019-02-17T19:03:17.848Z,9.90
2019-02-17T19:08:30.525Z,9.80
2019-02-17T19:11:01.030Z,9.70
2019-02-17T19:13:31.968Z,9.70
2019-02-17T19:16:02.465Z,9.70
2019-02-17T19:18:33.047Z,9.70
2019-02-17T19:21:03.728Z,9.70
2019-02-17T19:23:34.401Z,9.60
2019-02-17T19:26:04.951Z,9.60
2019-02-17T19:28:35.496Z,9.60
2019-02-17T19:31:06.009Z,9.60
2019-02-17T19:33:36.520Z,9.50
2019-02-17T19:36:06.984Z,9.50
2019-02-17T19:38:37.472Z,9.50
2019-02-17T19:41:08.011Z,9.50
2019-02-17T19:43:38.519Z,9.50
2019-02-17T19:46:09.071Z,9.50
2019-02-17T19:48:39.655Z,9.60
2019-02-17T19:51:10.106Z,9.50
2019-02-17T19:53:40.614Z,9.50
2019-02-17T19:56:11.126Z,9.50
2019-02-17T19:58:41.632Z,9.50
2019-02-17T20:01:12.225Z,9.50
2019-02-17T20:04:10.725Z,9.50
2019-02-17T20:06:41.185Z,9.50
2019-02-17T20:12:07.209Z,9.40
2019-02-17T20:14:37.708Z,9.50
2019-02-17T20:17:08.260Z,9.40
2019-02-17T20:19:38.822Z,9.40
2019-02-17T20:22:09.432Z,9.40
2019-02-17T20:24:39.937Z,9.50
2019-02-17T20:27:11.469Z,9.50
2019-02-17T20:29:42.054Z,9.50
2019-02-17T20:32:12.635Z,9.50
2019-02-17T20:34:43.189Z,9.50
2019-02-17T20:37:13.876Z,9.60
2019-02-17T20:39:44.480Z,9.60
2019-02-17T20:42:15.018Z,9.60
2019-02-17T20:44:45.588Z,9.60
2019-02-17T20:47:16.117Z,9.60
2019-02-17T20:49:46.575Z,9.60
2019-02-17T20:52:17.149Z,9.50
2019-02-17T20:54:47.631Z,9.50
2019-02-17T20:57:18.193Z,9.50
2019-02-17T20:59:48.764Z,9.50
2019-02-17T21:02:19.308Z,9.60
2019-02-17T21:04:49.807Z,9.60
2019-02-17T21:07:20.275Z,9.60
2019-02-17T21:09:50.860Z,9.50
2019-02-17T21:12:21.432Z,9.50
2019-02-17T21:14:53.003Z,9.50
2019-02-17T21:17:23.597Z,9.50
2019-02-17T21:19:54.132Z,9.50
2019-02-17T21:22:24.696Z,9.50
2019-02-17T21:24:55.260Z,9.50
2019-02-17T21:27:25.840Z,9.50
2019-02-17T21:32:38.871Z,9.40
2019-02-17T21:35:11.034Z,9.40
2019-02-17T21:37:41.617Z,9.40
2019-02-17T21:40:12.265Z,9.40
2019-02-17T21:42:42.795Z,9.40
2019-02-17T21:45:13.682Z,9.40
2019-02-17T21:47:44.266Z,9.40
2019-02-17T21:50:14.890Z,9.40
2019-02-17T21:52:45.640Z,9.40
2019-02-17T21:55:17.373Z,9.40
2019-02-17T21:57:47.988Z,9.40
2019-02-17T22:00:19.778Z,9.40
2019-02-17T22:02:51.467Z,9.30
2019-02-17T22:05:22.078Z,9.30
2019-02-17T22:07:52.761Z,9.30
2019-02-17T22:10:23.355Z,9.30
2019-02-17T22:12:53.993Z,9.20
2019-02-17T22:15:24.606Z,9.20
2019-02-17T22:17:55.211Z,9.20
2019-02-17T22:20:25.796Z,9.20
2019-02-17T22:22:56.431Z,9.20
2019-02-17T22:25:27.148Z,9.10
2019-02-17T22:27:57.747Z,9.10
2019-02-17T22:30:28.312Z,9.10
2019-02-17T22:32:58.928Z,9.10
2019-02-17T22:35:29.628Z,9.10
2019-02-17T22:38:00.257Z,9.10
2019-02-17T22:40:30.880Z,9.10
2019-02-17T22:43:01.502Z,9.10
2019-02-17T22:45:32.168Z,9.10
2019-02-17T22:48:02.926Z,9.10
2019-02-17T22:50:34.176Z,9.10
2019-02-17T22:53:04.812Z,9.10
2019-02-17T22:55:35.703Z,9.10
2019-02-17T22:58:08.824Z,9.00
2019-02-17T23:01:16.319Z,9.00
2019-02-17T23:03:47.598Z,9.00
2019-02-17T23:06:18.368Z,9.00
2019-02-17T23:08:49.862Z,9.00
2019-02-17T23:11:22.302Z,9.00
2019-02-17T23:13:53.840Z,8.90
2019-02-17T23:16:25.004Z,8.90
2019-02-17T23:18:55.611Z,8.90
2019-02-17T23:21:26.245Z,8.90
2019-02-17T23:23:57.600Z,8.90
2019-02-17T23:26:29.181Z,8.90
2019-02-17T23:29:00.260Z,8.90
2019-02-17T23:31:31.093Z,9.00
2019-02-17T23:34:01.591Z,9.00
2019-02-17T23:36:32.351Z,9.00
2019-02-17T23:39:04.188Z,9.00
2019-02-17T23:41:37.546Z,9.00
2019-02-17T23:44:08.067Z,9.00
2019-02-17T23:46:38.676Z,9.00
2019-02-17T23:49:09.255Z,9.00
2019-02-17T23:51:39.848Z,9.00
2019-02-17T23:54:10.355Z,9.10
2019-02-17T23:56:41.043Z,9.10
2019-02-17T23:59:11.653Z,9.10
